Terminal Aerodrome Forecast
Issued by NWS Chicago, IL

Home | Current Version | Previous Version | Text Only | Print | Product List | Glossary On
Versions: 1 2 3 4 5 6 7 8 9 10 11 12 13 14 15 16 17 18 19 20 21 22 23 24 25 26 27 28 29 30 31
000
FTUS43 KLOT 020500
TAFRFD
TAF
KRFD 020530Z 0206/0306 VRB04KT P6SM SCT250
     FM020900 00000KT 4SM BR SCT250
     FM021600 VRB04KT P6SM SCT050
     FM030130 12003KT P6SM SCT250=

USA.gov is the U.S. government's official web portal to all federal, state and local government web resources and services.